sensor_id;sensor_type;location;lat;lon;timestamp;temperature;humidity
2605;DHT22;1312;50.298;8.520;2024-01-06T00:00:49;4.00;1.00
2605;DHT22;1312;50.298;8.520;2024-01-06T00:03:19;4.00;1.00
2605;DHT22;1312;50.298;8.520;2024-01-06T00:05:47;4.00;1.00
2605;DHT22;1312;50.298;8.520;2024-01-06T00:08:15;4.00;1.00
2605;DHT22;1312;50.298;8.520;2024-01-06T00:10:42;4.10;1.00
2605;DHT22;1312;50.298;8.520;2024-01-06T00:13:10;4.10;1.00
2605;DHT22;1312;50.298;8.520;2024-01-06T00:15:38;4.10;1.00
2605;DHT22;1312;50.298;8.520;2024-01-06T00:18:06;4.10;1.00
2605;DHT22;1312;50.298;8.520;2024-01-06T00:20:36;4.20;1.00
2605;DHT22;1312;50.298;8.520;2024-01-06T00:23:04;4.20;1.00
2605;DHT22;1312;50.298;8.520;2024-01-06T00:25:32;4.20;1.00
2605;DHT22;1312;50.298;8.520;2024-01-06T00:27:59;4.30;1.00
2605;DHT22;1312;50.298;8.520;2024-01-06T00:30:27;4.30;1.00
2605;DHT22;1312;50.298;8.520;2024-01-06T00:32:55;4.30;1.00
2605;DHT22;1312;50.298;8.520;2024-01-06T00:35:23;4.30;1.00
2605;DHT22;1312;50.298;8.520;2024-01-06T00:37:53;4.30;1.00
2605;DHT22;1312;50.298;8.520;2024-01-06T00:40:22;4.40;1.00
2605;DHT22;1312;50.298;8.520;2024-01-06T00:42:50;4.40;1.00
2605;DHT22;1312;50.298;8.520;2024-01-06T00:45:18;4.40;1.00
2605;DHT22;1312;50.298;8.520;2024-01-06T00:47:45;4.40;1.00
2605;DHT22;1312;50.298;8.520;2024-01-06T00:50:14;4.40;1.00
2605;DHT22;1312;50.298;8.520;2024-01-06T00:52:43;4.50;99.90
2605;DHT22;1312;50.298;8.520;2024-01-06T00:55:12;4.50;99.90
2605;DHT22;1312;50.298;8.520;2024-01-06T00:57:41;4.50;99.90
2605;DHT22;1312;50.298;8.520;2024-01-06T01:00:10;4.50;1.00
2605;DHT22;1312;50.298;8.520;2024-01-06T01:02:38;4.50;1.00
2605;DHT22;1312;50.298;8.520;2024-01-06T01:05:07;4.40;1.00
2605;DHT22;1312;50.298;8.520;2024-01-06T01:07:35;4.40;1.00
2605;DHT22;1312;50.298;8.520;2024-01-06T01:10:03;4.50;1.00
2605;DHT22;1312;50.298;8.520;2024-01-06T01:12:34;4.50;99.90
2605;DHT22;1312;50.298;8.520;2024-01-06T01:15:02;4.60;1.00
2605;DHT22;1312;50.298;8.520;2024-01-06T01:17:30;4.50;1.00
2605;DHT22;1312;50.298;8.520;2024-01-06T01:19:58;4.50;1.00
2605;DHT22;1312;50.298;8.520;2024-01-06T01:22:26;4.50;1.00
2605;DHT22;1312;50.298;8.520;2024-01-06T01:24:54;4.50;1.00
2605;DHT22;1312;50.298;8.520;2024-01-06T01:27:22;4.60;99.90
2605;DHT22;1312;50.298;8.520;2024-01-06T01:29:51;4.60;99.90
2605;DHT22;1312;50.298;8.520;2024-01-06T01:32:21;4.60;99.90
2605;DHT22;1312;50.298;8.520;2024-01-06T01:34:50;4.70;99.90
2605;DHT22;1312;50.298;8.520;2024-01-06T01:37:18;4.60;1.00
2605;DHT22;1312;50.298;8.520;2024-01-06T01:39:47;4.70;99.90
2605;DHT22;1312;50.298;8.520;2024-01-06T01:42:15;4.60;99.90
2605;DHT22;1312;50.298;8.520;2024-01-06T01:44:42;4.70;99.90
2605;DHT22;1312;50.298;8.520;2024-01-06T01:47:12;4.70;99.90
2605;DHT22;1312;50.298;8.520;2024-01-06T01:49:46;4.60;99.90
2605;DHT22;1312;50.298;8.520;2024-01-06T01:52:15;4.70;99.90
2605;DHT22;1312;50.298;8.520;2024-01-06T01:54:44;4.70;99.90
2605;DHT22;1312;50.298;8.520;2024-01-06T01:57:14;4.70;99.90
2605;DHT22;1312;50.298;8.520;2024-01-06T01:59:42;4.70;99.90
2605;DHT22;1312;50.298;8.520;2024-01-06T02:02:12;4.80;99.90
2605;DHT22;1312;50.298;8.520;2024-01-06T02:04:40;4.80;99.90
2605;DHT22;1312;50.298;8.520;2024-01-06T02:07:08;4.80;99.90
2605;DHT22;1312;50.298;8.520;2024-01-06T02:09:36;4.80;99.90
2605;DHT22;1312;50.298;8.520;2024-01-06T02:12:04;4.80;99.90
2605;DHT22;1312;50.298;8.520;2024-01-06T02:14:32;4.90;99.90
2605;DHT22;1312;50.298;8.520;2024-01-06T02:17:00;4.80;99.90
2605;DHT22;1312;50.298;8.520;2024-01-06T02:19:29;4.90;99.90
2605;DHT22;1312;50.298;8.520;2024-01-06T02:21:59;4.80;99.90
2605;DHT22;1312;50.298;8.520;2024-01-06T02:24:27;4.80;99.90
2605;DHT22;1312;50.298;8.520;2024-01-06T02:26:55;4.90;99.90
2605;DHT22;1312;50.298;8.520;2024-01-06T02:29:23;5.00;99.90
2605;DHT22;1312;50.298;8.520;2024-01-06T02:31:51;5.00;99.90
2605;DHT22;1312;50.298;8.520;2024-01-06T02:34:18;5.10;99.90
2605;DHT22;1312;50.298;8.520;2024-01-06T02:36:46;5.00;99.90
2605;DHT22;1312;50.298;8.520;2024-01-06T02:39:16;5.00;99.90
2605;DHT22;1312;50.298;8.520;2024-01-06T02:41:44;5.00;99.90
2605;DHT22;1312;50.298;8.520;2024-01-06T02:44:12;5.00;99.90
2605;DHT22;1312;50.298;8.520;2024-01-06T02:46:40;5.10;99.90
2605;DHT22;1312;50.298;8.520;2024-01-06T02:49:08;4.70;1.00
2605;DHT22;1312;50.298;8.520;2024-01-06T02:51:36;3.90;1.00
2605;DHT22;1312;50.298;8.520;2024-01-06T02:54:04;3.80;1.00
2605;DHT22;1312;50.298;8.520;2024-01-06T02:56:34;4.00;1.00
2605;DHT22;1312;50.298;8.520;2024-01-06T02:59:02;4.10;1.00
2605;DHT22;1312;50.298;8.520;2024-01-06T03:01:31;4.30;1.00
2605;DHT22;1312;50.298;8.520;2024-01-06T03:03:59;4.40;1.00
2605;DHT22;1312;50.298;8.520;2024-01-06T03:06:28;4.60;1.00
2605;DHT22;1312;50.298;8.520;2024-01-06T03:08:56;4.60;1.00
2605;DHT22;1312;50.298;8.520;2024-01-06T03:11:24;4.70;99.90
2605;DHT22;1312;50.298;8.520;2024-01-06T03:13:53;4.70;1.00
2605;DHT22;1312;50.298;8.520;2024-01-06T03:16:21;4.60;99.90
2605;DHT22;1312;50.298;8.520;2024-01-06T03:18:49;4.70;1.00
2605;DHT22;1312;50.298;8.520;2024-01-06T03:21:17;4.70;1.00
2605;DHT22;1312;50.298;8.520;2024-01-06T03:23:46;4.80;1.00
2605;DHT22;1312;50.298;8.520;2024-01-06T03:26:14;4.70;1.00
2605;DHT22;1312;50.298;8.520;2024-01-06T03:28:41;4.70;1.00
2605;DHT22;1312;50.298;8.520;2024-01-06T03:31:11;4.70;1.00
2605;DHT22;1312;50.298;8.520;2024-01-06T03:33:39;4.70;1.00
2605;DHT22;1312;50.298;8.520;2024-01-06T03:36:07;4.70;1.00
2605;DHT22;1312;50.298;8.520;2024-01-06T03:38:35;4.70;1.00
2605;DHT22;1312;50.298;8.520;2024-01-06T03:41:03;4.70;1.00
2605;DHT22;1312;50.298;8.520;2024-01-06T03:43:31;4.70;1.00
2605;DHT22;1312;50.298;8.520;2024-01-06T03:45:59;4.70;1.00
2605;DHT22;1312;50.298;8.520;2024-01-06T03:48:29;4.70;1.00
2605;DHT22;1312;50.298;8.520;2024-01-06T03:50:57;4.80;1.00
2605;DHT22;1312;50.298;8.520;2024-01-06T03:53:25;4.80;1.00
2605;DHT22;1312;50.298;8.520;2024-01-06T03:55:53;4.70;1.00
2605;DHT22;1312;50.298;8.520;2024-01-06T03:58:21;4.70;1.00
2605;DHT22;1312;50.298;8.520;2024-01-06T04:00:49;4.80;1.00
2605;DHT22;1312;50.298;8.520;2024-01-06T04:03:17;4.70;1.00
2605;DHT22;1312;50.298;8.520;2024-01-06T04:05:46;4.70;1.00
2605;DHT22;1312;50.298;8.520;2024-01-06T04:08:14;4.80;1.00
2605;DHT22;1312;50.298;8.520;2024-01-06T04:10:42;4.90;1.00
2605;DHT22;1312;50.298;8.520;2024-01-06T04:13:10;4.80;1.00
2605;DHT22;1312;50.298;8.520;2024-01-06T04:15:38;4.70;1.00
2605;DHT22;1312;50.298;8.520;2024-01-06T04:18:06;4.60;1.00
2605;DHT22;1312;50.298;8.520;2024-01-06T04:20:36;4.50;1.00
2605;DHT22;1312;50.298;8.520;2024-01-06T04:23:05;4.40;1.00
2605;DHT22;1312;50.298;8.520;2024-01-06T04:25:33;4.40;1.00
2605;DHT22;1312;50.298;8.520;2024-01-06T04:28:01;4.30;1.00
2605;DHT22;1312;50.298;8.520;2024-01-06T04:30:29;4.30;1.00
2605;DHT22;1312;50.298;8.520;2024-01-06T04:32:57;4.20;1.00
2605;DHT22;1312;50.298;8.520;2024-01-06T04:35:25;4.10;1.00
2605;DHT22;1312;50.298;8.520;2024-01-06T04:37:53;4.10;1.00
2605;DHT22;1312;50.298;8.520;2024-01-06T04:40:22;4.30;1.00
2605;DHT22;1312;50.298;8.520;2024-01-06T04:42:50;4.20;1.00
2605;DHT22;1312;50.298;8.520;2024-01-06T04:45:18;4.40;1.00
2605;DHT22;1312;50.298;8.520;2024-01-06T04:47:47;4.40;1.00
2605;DHT22;1312;50.298;8.520;2024-01-06T04:50:15;4.40;1.00
2605;DHT22;1312;50.298;8.520;2024-01-06T04:52:43;4.60;1.00
2605;DHT22;1312;50.298;8.520;2024-01-06T04:55:11;4.50;1.00
2605;DHT22;1312;50.298;8.520;2024-01-06T04:57:41;4.50;1.00
2605;DHT22;1312;50.298;8.520;2024-01-06T05:00:10;4.50;1.00
2605;DHT22;1312;50.298;8.520;2024-01-06T05:02:39;4.60;1.00
2605;DHT22;1312;50.298;8.520;2024-01-06T05:05:07;4.70;1.00
2605;DHT22;1312;50.298;8.520;2024-01-06T05:07:35;4.60;1.00
2605;DHT22;1312;50.298;8.520;2024-01-06T05:10:03;4.70;1.00
2605;DHT22;1312;50.298;8.520;2024-01-06T05:12:32;4.80;1.00
2605;DHT22;1312;50.298;8.520;2024-01-06T05:15:01;4.70;1.00
2605;DHT22;1312;50.298;8.520;2024-01-06T05:17:29;4.60;1.00
2605;DHT22;1312;50.298;8.520;2024-01-06T05:19:57;4.50;1.00
2605;DHT22;1312;50.298;8.520;2024-01-06T05:22:25;4.60;1.00
2605;DHT22;1312;50.298;8.520;2024-01-06T05:24:53;4.60;1.00
2605;DHT22;1312;50.298;8.520;2024-01-06T05:27:21;4.50;1.00
2605;DHT22;1312;50.298;8.520;2024-01-06T05:29:48;4.60;1.00
2605;DHT22;1312;50.298;8.520;2024-01-06T05:32:19;4.60;1.00
2605;DHT22;1312;50.298;8.520;2024-01-06T05:34:48;4.70;1.00
2605;DHT22;1312;50.298;8.520;2024-01-06T05:37:17;4.70;1.00
2605;DHT22;1312;50.298;8.520;2024-01-06T05:39:45;4.70;1.00
2605;DHT22;1312;50.298;8.520;2024-01-06T05:42:13;4.70;1.00
2605;DHT22;1312;50.298;8.520;2024-01-06T05:44:41;4.60;1.00
2605;DHT22;1312;50.298;8.520;2024-01-06T05:47:09;4.60;1.00
2605;DHT22;1312;50.298;8.520;2024-01-06T05:49:41;4.60;1.00
2605;DHT22;1312;50.298;8.520;2024-01-06T05:52:09;4.60;1.00
2605;DHT22;1312;50.298;8.520;2024-01-06T05:54:40;4.60;1.00
2605;DHT22;1312;50.298;8.520;2024-01-06T05:57:09;4.50;1.00
2605;DHT22;1312;50.298;8.520;2024-01-06T05:59:37;4.40;1.00
2605;DHT22;1312;50.298;8.520;2024-01-06T06:02:04;4.50;1.00
2605;DHT22;1312;50.298;8.520;2024-01-06T06:04:32;4.30;1.00
2605;DHT22;1312;50.298;8.520;2024-01-06T06:07:02;4.30;1.00
2605;DHT22;1312;50.298;8.520;2024-01-06T06:09:30;4.10;88.80
2605;DHT22;1312;50.298;8.520;2024-01-06T06:12:01;4.00;99.90
2605;DHT22;1312;50.298;8.520;2024-01-06T06:14:29;4.10;72.10
2605;DHT22;1312;50.298;8.520;2024-01-06T06:16:57;4.10;95.70
2605;DHT22;1312;50.298;8.520;2024-01-06T06:19:25;4.00;99.90
2605;DHT22;1312;50.298;8.520;2024-01-06T06:21:53;4.00;99.90
2605;DHT22;1312;50.298;8.520;2024-01-06T06:24:22;4.30;10.90
2605;DHT22;1312;50.298;8.520;2024-01-06T06:26:50;4.40;1.00
2605;DHT22;1312;50.298;8.520;2024-01-06T06:29:18;4.40;1.00
2605;DHT22;1312;50.298;8.520;2024-01-06T06:31:47;4.50;1.00
2605;DHT22;1312;50.298;8.520;2024-01-06T06:34:15;4.40;1.00
2605;DHT22;1312;50.298;8.520;2024-01-06T06:36:44;4.50;1.00
2605;DHT22;1312;50.298;8.520;2024-01-06T06:39:12;4.30;1.00
2605;DHT22;1312;50.298;8.520;2024-01-06T06:41:42;4.30;35.10
2605;DHT22;1312;50.298;8.520;2024-01-06T06:44:10;4.20;30.00
2605;DHT22;1312;50.298;8.520;2024-01-06T06:46:38;4.20;63.80
2605;DHT22;1312;50.298;8.520;2024-01-06T06:49:06;4.20;99.20
2605;DHT22;1312;50.298;8.520;2024-01-06T06:51:34;4.10;99.90
2605;DHT22;1312;50.298;8.520;2024-01-06T06:54:02;4.10;99.90
2605;DHT22;1312;50.298;8.520;2024-01-06T06:56:30;4.20;99.90
2605;DHT22;1312;50.298;8.520;2024-01-06T06:58:59;4.10;99.90
2605;DHT22;1312;50.298;8.520;2024-01-06T07:01:28;4.10;99.90
2605;DHT22;1312;50.298;8.520;2024-01-06T07:04:00;4.20;99.90
2605;DHT22;1312;50.298;8.520;2024-01-06T07:06:29;4.20;99.90
2605;DHT22;1312;50.298;8.520;2024-01-06T07:08:57;4.30;99.90
2605;DHT22;1312;50.298;8.520;2024-01-06T07:11:25;4.60;44.90
2605;DHT22;1312;50.298;8.520;2024-01-06T07:13:54;4.50;1.00
2605;DHT22;1312;50.298;8.520;2024-01-06T07:16:23;4.40;37.90
2605;DHT22;1312;50.298;8.520;2024-01-06T07:18:51;4.60;1.00
2605;DHT22;1312;50.298;8.520;2024-01-06T07:21:19;4.50;1.00
2605;DHT22;1312;50.298;8.520;2024-01-06T07:23:47;4.50;44.60
2605;DHT22;1312;50.298;8.520;2024-01-06T07:26:15;4.60;24.40
2605;DHT22;1312;50.298;8.520;2024-01-06T07:28:44;4.70;1.00
2605;DHT22;1312;50.298;8.520;2024-01-06T07:31:12;4.70;1.00
2605;DHT22;1312;50.298;8.520;2024-01-06T07:33:41;4.60;1.00
2605;DHT22;1312;50.298;8.520;2024-01-06T07:36:09;4.70;1.00
2605;DHT22;1312;50.298;8.520;2024-01-06T07:38:37;4.60;1.00
2605;DHT22;1312;50.298;8.520;2024-01-06T07:41:06;4.60;23.80
2605;DHT22;1312;50.298;8.520;2024-01-06T07:43:34;4.70;1.00
2605;DHT22;1312;50.298;8.520;2024-01-06T07:46:03;4.70;1.00
2605;DHT22;1312;50.298;8.520;2024-01-06T07:48:31;4.70;1.00
2605;DHT22;1312;50.298;8.520;2024-01-06T07:51:01;4.80;1.00
2605;DHT22;1312;50.298;8.520;2024-01-06T07:53:30;4.90;1.00
2605;DHT22;1312;50.298;8.520;2024-01-06T07:55:58;4.80;1.00
2605;DHT22;1312;50.298;8.520;2024-01-06T07:58:26;4.80;8.20
2605;DHT22;1312;50.298;8.520;2024-01-06T08:00:54;4.80;1.00
2605;DHT22;1312;50.298;8.520;2024-01-06T08:03:22;4.90;1.00
2605;DHT22;1312;50.298;8.520;2024-01-06T08:05:51;4.80;1.00
2605;DHT22;1312;50.298;8.520;2024-01-06T08:08:21;5.00;1.00
2605;DHT22;1312;50.298;8.520;2024-01-06T08:10:49;5.00;1.00
2605;DHT22;1312;50.298;8.520;2024-01-06T08:13:17;5.00;1.00
2605;DHT22;1312;50.298;8.520;2024-01-06T08:15:44;5.10;1.00
2605;DHT22;1312;50.298;8.520;2024-01-06T08:18:12;5.00;1.00
2605;DHT22;1312;50.298;8.520;2024-01-06T08:20:41;5.10;1.00
2605;DHT22;1312;50.298;8.520;2024-01-06T08:23:20;5.10;1.00
2605;DHT22;1312;50.298;8.520;2024-01-06T08:25:49;4.90;1.00
2605;DHT22;1312;50.298;8.520;2024-01-06T08:28:16;4.90;28.30
2605;DHT22;1312;50.298;8.520;2024-01-06T08:30:45;5.00;2.10
2605;DHT22;1312;50.298;8.520;2024-01-06T08:33:13;4.90;6.60
2605;DHT22;1312;50.298;8.520;2024-01-06T08:35:41;4.90;1.00
2605;DHT22;1312;50.298;8.520;2024-01-06T08:38:09;4.90;9.40
2605;DHT22;1312;50.298;8.520;2024-01-06T08:40:38;4.90;52.10
2605;DHT22;1312;50.298;8.520;2024-01-06T08:43:06;4.90;10.60
2605;DHT22;1312;50.298;8.520;2024-01-06T08:45:34;5.10;1.00
2605;DHT22;1312;50.298;8.520;2024-01-06T08:48:03;5.10;1.00
2605;DHT22;1312;50.298;8.520;2024-01-06T08:50:31;5.10;1.00
2605;DHT22;1312;50.298;8.520;2024-01-06T08:52:59;5.20;1.00
2605;DHT22;1312;50.298;8.520;2024-01-06T08:55:27;5.20;1.00
2605;DHT22;1312;50.298;8.520;2024-01-06T08:57:56;5.10;1.00
2605;DHT22;1312;50.298;8.520;2024-01-06T09:00:25;5.30;1.00
2605;DHT22;1312;50.298;8.520;2024-01-06T09:02:52;5.30;1.00
2605;DHT22;1312;50.298;8.520;2024-01-06T09:05:20;5.30;1.00
2605;DHT22;1312;50.298;8.520;2024-01-06T09:07:48;5.30;1.00
2605;DHT22;1312;50.298;8.520;2024-01-06T09:10:21;5.30;1.00
2605;DHT22;1312;50.298;8.520;2024-01-06T09:12:49;5.20;1.00
2605;DHT22;1312;50.298;8.520;2024-01-06T09:15:18;5.20;1.00
2605;DHT22;1312;50.298;8.520;2024-01-06T09:17:46;5.30;1.00
2605;DHT22;1312;50.298;8.520;2024-01-06T09:20:14;5.40;1.00
2605;DHT22;1312;50.298;8.520;2024-01-06T09:22:44;5.50;1.00
2605;DHT22;1312;50.298;8.520;2024-01-06T09:25:11;5.50;1.00
2605;DHT22;1312;50.298;8.520;2024-01-06T09:27:40;5.60;1.00
2605;DHT22;1312;50.298;8.520;2024-01-06T09:30:09;5.70;1.00
2605;DHT22;1312;50.298;8.520;2024-01-06T09:32:39;5.70;1.00
2605;DHT22;1312;50.298;8.520;2024-01-06T09:35:07;5.70;1.00
2605;DHT22;1312;50.298;8.520;2024-01-06T09:37:35;5.80;1.00
2605;DHT22;1312;50.298;8.520;2024-01-06T09:40:04;5.80;1.00
2605;DHT22;1312;50.298;8.520;2024-01-06T09:42:32;5.90;1.00
2605;DHT22;1312;50.298;8.520;2024-01-06T09:45:00;5.90;1.00
2605;DHT22;1312;50.298;8.520;2024-01-06T09:47:28;5.90;1.00
2605;DHT22;1312;50.298;8.520;2024-01-06T09:50:03;6.00;1.00
2605;DHT22;1312;50.298;8.520;2024-01-06T09:52:39;6.20;99.90
2605;DHT22;1312;50.298;8.520;2024-01-06T09:55:11;5.80;1.00
2605;DHT22;1312;50.298;8.520;2024-01-06T09:57:39;5.50;1.00
2605;DHT22;1312;50.298;8.520;2024-01-06T10:00:08;5.50;1.00
2605;DHT22;1312;50.298;8.520;2024-01-06T10:02:36;5.70;1.00
2605;DHT22;1312;50.298;8.520;2024-01-06T10:05:06;6.00;1.00
2605;DHT22;1312;50.298;8.520;2024-01-06T10:07:34;6.10;1.00
2605;DHT22;1312;50.298;8.520;2024-01-06T10:10:02;6.20;1.00
2605;DHT22;1312;50.298;8.520;2024-01-06T10:12:30;6.50;99.90
2605;DHT22;1312;50.298;8.520;2024-01-06T10:14:59;6.30;1.00
2605;DHT22;1312;50.298;8.520;2024-01-06T10:17:27;6.00;1.00
2605;DHT22;1312;50.298;8.520;2024-01-06T10:19:55;5.90;1.00
2605;DHT22;1312;50.298;8.520;2024-01-06T10:22:25;6.40;1.00
2605;DHT22;1312;50.298;8.520;2024-01-06T10:24:54;6.70;1.00
2605;DHT22;1312;50.298;8.520;2024-01-06T10:27:22;6.60;1.00
2605;DHT22;1312;50.298;8.520;2024-01-06T10:29:50;6.40;1.00
2605;DHT22;1312;50.298;8.520;2024-01-06T10:32:18;6.40;1.00
2605;DHT22;1312;50.298;8.520;2024-01-06T10:34:46;6.60;1.00
2605;DHT22;1312;50.298;8.520;2024-01-06T10:37:17;6.90;1.00
2605;DHT22;1312;50.298;8.520;2024-01-06T10:39:46;6.90;99.90
2605;DHT22;1312;50.298;8.520;2024-01-06T10:42:13;6.70;1.00
2605;DHT22;1312;50.298;8.520;2024-01-06T10:44:42;6.70;1.00
2605;DHT22;1312;50.298;8.520;2024-01-06T10:47:15;6.70;1.00
2605;DHT22;1312;50.298;8.520;2024-01-06T10:49:45;6.50;1.00
2605;DHT22;1312;50.298;8.520;2024-01-06T10:52:13;6.20;1.00
2605;DHT22;1312;50.298;8.520;2024-01-06T10:54:42;6.20;99.90
2605;DHT22;1312;50.298;8.520;2024-01-06T10:57:13;6.00;99.90
2605;DHT22;1312;50.298;8.520;2024-01-06T10:59:42;5.90;1.00
2605;DHT22;1312;50.298;8.520;2024-01-06T11:02:11;5.90;1.00
2605;DHT22;1312;50.298;8.520;2024-01-06T11:04:39;5.90;99.90
2605;DHT22;1312;50.298;8.520;2024-01-06T11:07:08;5.90;99.90
2605;DHT22;1312;50.298;8.520;2024-01-06T11:09:39;6.00;99.90
2605;DHT22;1312;50.298;8.520;2024-01-06T11:12:12;6.10;99.90
2605;DHT22;1312;50.298;8.520;2024-01-06T11:14:40;6.20;1.00
2605;DHT22;1312;50.298;8.520;2024-01-06T11:17:08;6.20;99.90
2605;DHT22;1312;50.298;8.520;2024-01-06T11:19:44;6.30;99.90
2605;DHT22;1312;50.298;8.520;2024-01-06T11:22:21;6.30;1.00
2605;DHT22;1312;50.298;8.520;2024-01-06T11:24:50;6.30;99.90
2605;DHT22;1312;50.298;8.520;2024-01-06T11:27:20;6.20;99.90
2605;DHT22;1312;50.298;8.520;2024-01-06T11:29:51;6.10;1.00
2605;DHT22;1312;50.298;8.520;2024-01-06T11:32:27;5.90;99.90
2605;DHT22;1312;50.298;8.520;2024-01-06T11:35:05;5.90;99.90
2605;DHT22;1312;50.298;8.520;2024-01-06T11:37:50;5.70;1.00
2605;DHT22;1312;50.298;8.520;2024-01-06T11:40:30;5.60;1.00
2605;DHT22;1312;50.298;8.520;2024-01-06T11:43:06;5.60;63.20
2605;DHT22;1312;50.298;8.520;2024-01-06T11:45:36;5.70;99.90
2605;DHT22;1312;50.298;8.520;2024-01-06T11:48:06;5.90;1.00
2605;DHT22;1312;50.298;8.520;2024-01-06T11:50:37;5.90;1.00
2605;DHT22;1312;50.298;8.520;2024-01-06T11:53:06;5.80;99.90
2605;DHT22;1312;50.298;8.520;2024-01-06T11:55:38;5.80;1.00
2605;DHT22;1312;50.298;8.520;2024-01-06T11:58:08;5.70;1.00
2605;DHT22;1312;50.298;8.520;2024-01-06T12:00:36;5.70;1.00
2605;DHT22;1312;50.298;8.520;2024-01-06T12:03:06;5.90;99.90
2605;DHT22;1312;50.298;8.520;2024-01-06T12:08:04;6.10;1.00
2605;DHT22;1312;50.298;8.520;2024-01-06T12:10:34;6.10;99.90
2605;DHT22;1312;50.298;8.520;2024-01-06T12:13:04;6.20;99.90
2605;DHT22;1312;50.298;8.520;2024-01-06T12:15:33;6.20;99.90
2605;DHT22;1312;50.298;8.520;2024-01-06T12:18:03;6.00;1.00
2605;DHT22;1312;50.298;8.520;2024-01-06T12:20:31;6.20;1.00
2605;DHT22;1312;50.298;8.520;2024-01-06T12:22:59;6.20;1.00
2605;DHT22;1312;50.298;8.520;2024-01-06T12:25:28;6.40;1.00
2605;DHT22;1312;50.298;8.520;2024-01-06T12:28:02;6.50;1.00
2605;DHT22;1312;50.298;8.520;2024-01-06T12:30:30;6.60;1.00
2605;DHT22;1312;50.298;8.520;2024-01-06T12:33:00;6.60;99.90
2605;DHT22;1312;50.298;8.520;2024-01-06T12:35:28;6.50;99.90
2605;DHT22;1312;50.298;8.520;2024-01-06T12:37:56;6.30;99.90
2605;DHT22;1312;50.298;8.520;2024-01-06T12:40:23;6.40;1.00
2605;DHT22;1312;50.298;8.520;2024-01-06T12:42:53;6.40;99.90
2605;DHT22;1312;50.298;8.520;2024-01-06T12:45:21;6.60;99.90
2605;DHT22;1312;50.298;8.520;2024-01-06T12:47:49;6.60;99.90
2605;DHT22;1312;50.298;8.520;2024-01-06T12:50:19;6.60;99.90
2605;DHT22;1312;50.298;8.520;2024-01-06T12:52:48;6.50;99.90
2605;DHT22;1312;50.298;8.520;2024-01-06T12:55:16;6.40;99.90
2605;DHT22;1312;50.298;8.520;2024-01-06T12:57:44;6.20;99.90
2605;DHT22;1312;50.298;8.520;2024-01-06T13:00:13;6.30;99.90
2605;DHT22;1312;50.298;8.520;2024-01-06T13:02:41;6.10;95.30
2605;DHT22;1312;50.298;8.520;2024-01-06T13:05:09;6.10;99.90
2605;DHT22;1312;50.298;8.520;2024-01-06T13:07:39;5.90;99.90
2605;DHT22;1312;50.298;8.520;2024-01-06T13:10:08;5.70;99.90
2605;DHT22;1312;50.298;8.520;2024-01-06T13:12:37;6.00;99.90
2605;DHT22;1312;50.298;8.520;2024-01-06T13:15:06;5.90;99.90
2605;DHT22;1312;50.298;8.520;2024-01-06T13:17:38;5.90;99.90
2605;DHT22;1312;50.298;8.520;2024-01-06T13:20:07;5.80;99.90
2605;DHT22;1312;50.298;8.520;2024-01-06T13:22:35;5.50;20.40
2605;DHT22;1312;50.298;8.520;2024-01-06T13:25:05;5.50;1.00
2605;DHT22;1312;50.298;8.520;2024-01-06T13:27:35;5.30;1.00
2605;DHT22;1312;50.298;8.520;2024-01-06T13:30:04;5.20;9.50
2605;DHT22;1312;50.298;8.520;2024-01-06T13:32:32;5.20;1.00
2605;DHT22;1312;50.298;8.520;2024-01-06T13:35:01;5.20;1.00
2605;DHT22;1312;50.298;8.520;2024-01-06T13:37:32;5.20;60.80
2605;DHT22;1312;50.298;8.520;2024-01-06T13:40:00;5.10;1.00
2605;DHT22;1312;50.298;8.520;2024-01-06T13:42:29;5.20;28.30
2605;DHT22;1312;50.298;8.520;2024-01-06T13:44:57;5.10;99.90
2605;DHT22;1312;50.298;8.520;2024-01-06T13:47:27;5.20;92.10
2605;DHT22;1312;50.298;8.520;2024-01-06T13:49:55;5.20;35.20
2605;DHT22;1312;50.298;8.520;2024-01-06T13:52:24;5.20;77.60
2605;DHT22;1312;50.298;8.520;2024-01-06T13:54:53;5.10;85.90
2605;DHT22;1312;50.298;8.520;2024-01-06T13:57:22;5.10;28.00
2605;DHT22;1312;50.298;8.520;2024-01-06T13:59:51;5.10;99.90
2605;DHT22;1312;50.298;8.520;2024-01-06T14:02:19;5.10;8.90
2605;DHT22;1312;50.298;8.520;2024-01-06T14:04:47;5.00;75.60
2605;DHT22;1312;50.298;8.520;2024-01-06T14:07:15;5.00;99.90
2605;DHT22;1312;50.298;8.520;2024-01-06T14:09:45;5.10;99.90
2605;DHT22;1312;50.298;8.520;2024-01-06T14:12:13;5.10;99.90
2605;DHT22;1312;50.298;8.520;2024-01-06T14:14:41;5.00;99.90
2605;DHT22;1312;50.298;8.520;2024-01-06T14:17:11;5.00;99.90
2605;DHT22;1312;50.298;8.520;2024-01-06T14:19:39;5.00;99.90
2605;DHT22;1312;50.298;8.520;2024-01-06T14:22:10;5.00;89.20
2605;DHT22;1312;50.298;8.520;2024-01-06T14:24:38;4.90;99.90
2605;DHT22;1312;50.298;8.520;2024-01-06T14:27:06;5.00;76.50
2605;DHT22;1312;50.298;8.520;2024-01-06T14:29:34;4.70;1.00
2605;DHT22;1312;50.298;8.520;2024-01-06T14:32:03;4.70;16.80
2605;DHT22;1312;50.298;8.520;2024-01-06T14:34:32;4.80;1.00
2605;DHT22;1312;50.298;8.520;2024-01-06T14:37:01;4.80;1.00
2605;DHT22;1312;50.298;8.520;2024-01-06T14:39:29;4.80;1.00
2605;DHT22;1312;50.298;8.520;2024-01-06T14:41:57;4.80;1.00
2605;DHT22;1312;50.298;8.520;2024-01-06T14:44:25;4.80;1.00
2605;DHT22;1312;50.298;8.520;2024-01-06T14:46:55;4.70;1.00
2605;DHT22;1312;50.298;8.520;2024-01-06T14:49:23;4.90;1.00
2605;DHT22;1312;50.298;8.520;2024-01-06T14:51:52;4.90;1.00
2605;DHT22;1312;50.298;8.520;2024-01-06T14:54:20;4.80;1.00
2605;DHT22;1312;50.298;8.520;2024-01-06T14:56:48;4.70;1.00
2605;DHT22;1312;50.298;8.520;2024-01-06T14:59:17;4.80;1.00
2605;DHT22;1312;50.298;8.520;2024-01-06T15:01:47;4.80;1.00
2605;DHT22;1312;50.298;8.520;2024-01-06T15:04:15;4.80;1.00
2605;DHT22;1312;50.298;8.520;2024-01-06T15:06:45;4.70;1.00
2605;DHT22;1312;50.298;8.520;2024-01-06T15:09:15;4.60;18.40
2605;DHT22;1312;50.298;8.520;2024-01-06T15:11:43;4.60;37.20
2605;DHT22;1312;50.298;8.520;2024-01-06T15:14:11;4.50;1.00
2605;DHT22;1312;50.298;8.520;2024-01-06T15:16:40;4.60;1.00
2605;DHT22;1312;50.298;8.520;2024-01-06T15:19:08;4.50;1.00
2605;DHT22;1312;50.298;8.520;2024-01-06T15:21:38;4.50;1.00
2605;DHT22;1312;50.298;8.520;2024-01-06T15:24:06;4.40;29.50
2605;DHT22;1312;50.298;8.520;2024-01-06T15:26:36;4.40;14.80
2605;DHT22;1312;50.298;8.520;2024-01-06T15:29:04;4.40;1.00
2605;DHT22;1312;50.298;8.520;2024-01-06T15:31:32;4.40;1.00
2605;DHT22;1312;50.298;8.520;2024-01-06T15:34:00;4.30;29.60
2605;DHT22;1312;50.298;8.520;2024-01-06T15:36:28;4.30;99.90
2605;DHT22;1312;50.298;8.520;2024-01-06T15:38:56;4.30;99.90
2605;DHT22;1312;50.298;8.520;2024-01-06T15:41:24;4.30;99.90
2605;DHT22;1312;50.298;8.520;2024-01-06T15:43:53;4.30;62.70
2605;DHT22;1312;50.298;8.520;2024-01-06T15:46:21;4.30;78.90
2605;DHT22;1312;50.298;8.520;2024-01-06T15:48:50;4.20;99.90
2605;DHT22;1312;50.298;8.520;2024-01-06T15:51:18;4.30;58.30
2605;DHT22;1312;50.298;8.520;2024-01-06T15:53:46;4.10;99.90
2605;DHT22;1312;50.298;8.520;2024-01-06T15:56:13;4.10;99.90
2605;DHT22;1312;50.298;8.520;2024-01-06T15:58:41;4.20;99.90
2605;DHT22;1312;50.298;8.520;2024-01-06T16:01:11;4.10;99.90
2605;DHT22;1312;50.298;8.520;2024-01-06T16:03:39;4.00;99.90
2605;DHT22;1312;50.298;8.520;2024-01-06T16:06:07;4.00;99.90
2605;DHT22;1312;50.298;8.520;2024-01-06T16:08:36;3.90;99.90
2605;DHT22;1312;50.298;8.520;2024-01-06T16:11:03;3.90;99.90
2605;DHT22;1312;50.298;8.520;2024-01-06T16:13:32;3.90;99.90
2605;DHT22;1312;50.298;8.520;2024-01-06T16:16:00;3.80;99.90
2605;DHT22;1312;50.298;8.520;2024-01-06T16:18:30;3.90;99.90
2605;DHT22;1312;50.298;8.520;2024-01-06T16:20:58;4.00;99.90
2605;DHT22;1312;50.298;8.520;2024-01-06T16:23:28;3.80;99.90
2605;DHT22;1312;50.298;8.520;2024-01-06T16:25:57;3.80;99.90
2605;DHT22;1312;50.298;8.520;2024-01-06T16:28:24;3.80;99.90
2605;DHT22;1312;50.298;8.520;2024-01-06T16:30:52;3.80;99.90
2605;DHT22;1312;50.298;8.520;2024-01-06T16:33:20;3.80;99.90
2605;DHT22;1312;50.298;8.520;2024-01-06T16:35:50;3.80;1.00
2605;DHT22;1312;50.298;8.520;2024-01-06T16:38:17;3.80;1.00